Dublin, Ohio
Current Conditions -  °F | °C
As of 10:53 PM on Friday 28 Nov 2014 (Local Time) from KOSU Reporting Station
Clear Clear  
Wind Chill: 22°   Ceiling: Unl
Heat Index: 31°   Visibility: 10mi
Dew Point: 18°   Wind: 10mph
Humidity: 59%   Direction: 160°SSE
Pressure: 30.12"   Gusts: NA
Location:  40.11°N, 83.13°W
Report Text: KOSU 290353Z AUTO 16009KT 10SM CLR M01/M08 A3012 RMK AO2 SLP211 T10061078
Loading
Personal Weather Stations






























Interactive Weather Map New forecast layout! Learn more

10-Day Weather Forecast

Advertisements
Track Severe Weather on mobile